Time;durP1;ratioP1;P1;durP2;ratioP2;P2;SDS_P1;SDS_P2;PMS_P1;PMS_P2;Temp;Humidity;BMP_temperature;BMP_pressure;BME280_temperature;BME280_humidity;BME280_pressure;Samples;Min_cycle;Max_cycle;Signal;HPM_P1;HPM_P2
2022/07/03 00:01:56;;;;;;;;;;;;;;;13.18;100.00;101357.87;1780125;80;20166;-85
2022/07/03 00:04:23;;;;;;;;;;;;;;;13.18;100.00;101354.43;1780246;80;20513;-83
2022/07/03 00:06:49;;;;;;;;;;;;;;;13.18;100.00;101361.79;1780397;80;20250;-86
2022/07/03 00:09:18;;;;;;;;;;;;;;;13.16;100.00;101355.01;1780436;80;21133;-84
2022/07/03 00:11:45;;;;;;;;;;;;;;;13.08;100.00;101356.41;1780212;80;20121;-83
2022/07/03 00:14:13;;;;;;;;;;;;;;;13.04;100.00;101356.75;1754500;80;20134;-85
2022/07/03 00:16:40;;;;;;;;;;;;;;;13.01;100.00;101351.77;1780163;80;20172;-83
2022/07/03 00:19:07;;;;;;;;;;;;;;;13.01;100.00;101349.98;1780052;80;20144;-83
2022/07/03 00:21:37;;;;;;;;;;;;;;;12.99;100.00;101350.55;1780786;80;21116;-84
2022/07/03 00:24:09;;;;;;;;;;;;;;;12.93;100.00;101352.32;1776885;80;20191;-83
2022/07/03 00:26:39;;;;;;;;;;;;;;;12.90;100.00;101343.39;1777646;80;20145;-84
2022/07/03 00:29:08;;;;;;;;;;;;;;;12.86;100.00;101346.70;1776507;80;20425;-85
2022/07/03 00:31:35;;;;;;;;;;;;;;;12.85;100.00;101348.98;1780776;80;20156;-84
2022/07/03 00:34:02;;;;;;;;;;;;;;;12.84;100.00;101341.23;1780065;80;21239;-84
2022/07/03 00:36:36;;;;;;;;;;;;;;;12.83;100.00;101345.64;1780189;80;20242;-84
2022/07/03 00:39:04;;;;;;;;;;;;;;;12.84;100.00;101348.61;1780381;80;20169;-83
2022/07/03 00:41:34;;;;;;;;;;;;;;;12.87;100.00;101349.67;1780374;80;20458;-84
2022/07/03 00:44:02;;;;;;;;;;;;;;;12.88;100.00;101343.51;1780301;80;20157;-84
2022/07/03 00:46:29;;;;;;;;;;;;;;;12.89;100.00;101349.59;1780265;80;21109;-84
2022/07/03 00:48:57;;;;;;;;;;;;;;;12.86;100.00;101349.31;1780234;80;20176;-84
2022/07/03 00:51:27;;;;;;;;;;;;;;;12.83;100.00;101352.17;1780082;80;20509;-88
2022/07/03 00:53:56;;;;;;;;;;;;;;;12.84;100.00;101348.61;1779998;80;20144;-84
2022/07/03 00:56:28;;;;;;;;;;;;;;;12.87;100.00;101348.86;1780136;80;20144;-84
2022/07/03 00:58:57;;;;;;;;;;;;;;;12.88;100.00;101343.51;1780343;80;21128;-84
2022/07/03 01:01:28;;;;;;;;;;;;;;;12.89;100.00;101340.44;1776501;80;20171;-84
2022/07/03 01:03:58;;;;;;;;;;;;;;;12.89;100.00;101339.95;1776346;80;20128;-84
2022/07/03 01:06:27;;;;;;;;;;;;;;;12.90;100.00;101339.01;1775658;80;20137;-84
2022/07/03 01:08:58;;;;;;;;;;;;;;;12.89;100.00;101338.64;1780377;80;20587;-84
2022/07/03 01:11:33;;;;;;;;;;;;;;;12.88;100.00;101338.77;1756118;80;21159;-84
2022/07/03 01:14:19;;;;;;;;;;;;;;;12.84;100.00;101341.23;1758896;80;20174;-86
2022/07/03 01:16:54;;;;;;;;;;;;;;;12.77;100.00;101340.38;1760577;81;20248;-84
2022/07/03 01:19:41;;;;;;;;;;;;;;;12.65;100.00;101337.36;1752944;80;20193;-84
2022/07/03 01:22:32;;;;;;;;;;;;;;;12.53;100.00;101338.23;1759074;81;20193;-84
2022/07/03 01:25:18;;;;;;;;;;;;;;;12.44;100.00;101338.44;1760616;80;21251;-84
2022/07/03 01:28:00;;;;;;;;;;;;;;;12.39;100.00;101337.91;1760325;81;20154;-84
2022/07/03 01:30:29;;;;;;;;;;;;;;;12.29;100.00;101342.51;1760605;81;20189;-84
2022/07/03 01:33:08;;;;;;;;;;;;;;;12.14;100.00;101348.78;1759481;80;20173;-84
2022/07/03 01:35:40;;;;;;;;;;;;;;;11.99;100.00;101345.00;1760529;81;20188;-85
2022/07/03 01:38:11;;;;;;;;;;;;;;;11.92;100.00;101346.34;1759700;81;20754;-84
2022/07/03 01:40:41;;;;;;;;;;;;;;;11.94;100.00;101356.21;1760438;81;20217;-84
2022/07/03 01:43:11;;;;;;;;;;;;;;;11.99;100.00;101350.70;1760441;81;20187;-84
2022/07/03 01:45:45;;;;;;;;;;;;;;;12.07;100.00;101352.77;1760488;81;20240;-85
2022/07/03 01:48:13;;;;;;;;;;;;;;;12.13;100.00;101353.19;1726560;81;20196;-84
2022/07/03 01:50:42;;;;;;;;;;;;;;;12.20;100.00;101350.98;1760597;81;21104;-85
2022/07/03 01:53:10;;;;;;;;;;;;;;;12.23;100.00;101350.75;1760593;81;20185;-85
2022/07/03 01:55:41;;;;;;;;;;;;;;;12.21;100.00;101350.05;1760239;80;20161;-85
2022/07/03 01:58:10;;;;;;;;;;;;;;;12.15;100.00;101342.63;1760419;80;20173;-85
2022/07/03 02:00:49;;;;;;;;;;;;;;;12.15;100.00;101342.63;1760405;80;20192;-84
2022/07/03 02:03:25;;;;;;;;;;;;;;;12.14;100.00;101345.72;1755403;80;21152;-85
2022/07/03 02:05:55;;;;;;;;;;;;;;;12.17;100.00;101347.27;1760229;81;20271;-84
2022/07/03 02:08:31;;;;;;;;;;;;;;;12.20;100.00;101346.22;1760594;81;20225;-85
2022/07/03 02:11:16;;;;;;;;;;;;;;;12.14;100.00;101344.41;1763888;80;20137;-84
2022/07/03 02:14:02;;;;;;;;;;;;;;;12.13;100.00;101354.97;1769845;81;20427;-85
2022/07/03 02:16:34;;;;;;;;;;;;;;;12.10;100.00;101352.56;1772730;79;20164;-86
2022/07/03 02:19:05;;;;;;;;;;;;;;;12.08;100.00;101353.13;1769146;81;20462;-85
2022/07/03 02:21:32;;;;;;;;;;;;;;;12.09;100.00;101350.89;1763668;79;20443;-85
2022/07/03 02:24:20;;;;;;;;;;;;;;;12.14;100.00;101356.16;1760611;81;20149;-84
2022/07/03 02:27:04;;;;;;;;;;;;;;;12.20;100.00;101349.68;1760261;81;20221;-84
2022/07/03 02:29:34;;;;;;;;;;;;;;;12.27;100.00;101351.37;1758978;81;21175;-84
2022/07/03 02:32:03;;;;;;;;;;;;;;;12.30;100.00;101352.47;1760237;81;20167;-84
2022/07/03 02:34:32;;;;;;;;;;;;;;;12.31;100.00;101349.73;1760746;81;20236;-85
2022/07/03 02:37:17;;;;;;;;;;;;;;;12.33;100.00;101348.80;1760369;81;20177;-84
2022/07/03 02:39:48;;;;;;;;;;;;;;;12.34;100.00;101358.31;1758019;81;20490;-84
2022/07/03 02:42:51;;;;;;;;;;;;;;;12.34;100.00;101354.39;1755653;81;21379;-84
2022/07/03 02:45:20;;;;;;;;;;;;;;;12.38;100.00;101357.16;1758915;80;20143;-84
2022/07/03 02:47:53;;;;;;;;;;;;;;;12.46;100.00;101349.58;1760431;81;20158;-85
2022/07/03 02:50:22;;;;;;;;;;;;;;;12.58;100.00;101343.50;1753990;81;20150;-84
2022/07/03 02:53:26;;;;;;;;;;;;;;;12.69;100.00;101340.59;1760683;81;20167;-84
2022/07/03 02:55:57;;;;;;;;;;;;;;;12.81;100.00;101338.37;1760388;81;21104;-84
2022/07/03 02:58:36;;;;;;;;;;;;;;;12.96;100.00;101343.41;1753780;81;20416;-84
2022/07/03 03:01:23;;;;;;;;;;;;;;;13.08;100.00;101341.22;1758159;81;20459;-84
2022/07/03 03:04:08;;;;;;;;;;;;;;;13.21;100.00;101347.19;1760644;81;20142;-85
2022/07/03 03:06:42;;;;;;;;;;;;;;;13.36;100.00;101347.83;1760704;81;20186;-85
2022/07/03 03:09:12;;;;;;;;;;;;;;;13.50;100.00;101344.17;1760152;81;21215;-85
2022/07/03 03:11:44;;;;;;;;;;;;;;;13.64;100.00;101339.70;1750263;81;20147;-84
2022/07/03 03:14:13;;;;;;;;;;;;;;;13.77;100.00;101343.02;1749433;82;20193;-85
2022/07/03 03:16:42;;;;;;;;;;;;;;;13.88;100.00;101346.12;1749743;81;20165;-87
2022/07/03 03:19:12;;;;;;;;;;;;;;;13.99;100.00;101346.58;1747731;81;20139;-84
2022/07/03 03:21:42;;;;;;;;;;;;;;;14.12;100.00;101346.00;1749520;81;21150;-85
2022/07/03 03:24:09;;;;;;;;;;;;;;;14.27;100.00;101347.86;1735913;82;20144;-84
2022/07/03 03:26:38;;;;;;;;;;;;;;;14.42;100.00;101348.44;1749290;82;20135;-84
2022/07/03 03:29:05;;;;;;;;;;;;;;;14.56;100.00;101343.88;1749765;81;20428;-87
2022/07/03 03:31:32;;;;;;;;;;;;;;;14.71;100.00;101342.66;1749418;81;20159;-85
2022/07/03 03:33:59;;;;;;;;;;;;;;;14.88;100.00;101341.77;1749346;82;21181;-85
2022/07/03 03:36:27;;;;;;;;;;;;;;;15.05;100.00;101341.70;1749353;82;20143;-86
2022/07/03 03:38:55;;;;;;;;;;;;;;;15.20;100.00;101336.50;1749501;81;20159;-85
2022/07/03 03:41:23;;;;;;;;;;;;;;;15.38;100.00;101338.05;1749244;81;20162;-85
2022/07/03 03:43:50;;;;;;;;;;;;;;;15.55;100.00;101337.92;1749370;82;20135;-85
2022/07/03 03:46:17;;;;;;;;;;;;;;;15.71;100.00;101335.30;1749346;81;21147;-84
2022/07/03 03:48:44;;;;;;;;;;;;;;;15.88;100.00;101335.21;1749529;82;20178;-86
2022/07/03 03:51:12;;;;;;;;;;;;;;;16.02;100.00;101333.52;1749331;81;20472;-85
2022/07/03 03:53:39;;;;;;;;;;;;;;;16.17;100.00;101327.89;1749843;81;20198;-84
2022/07/03 03:56:14;;;;;;;;;;;;;;;16.32;100.00;101327.03;1749258;81;20155;-84
2022/07/03 03:58:43;;;;;;;;;;;;;;;16.46;100.00;101327.13;1723687;82;39442;-84
2022/07/03 04:01:11;;;;;;;;;;;;;;;16.58;100.00;101319.45;1749158;82;20180;-84
2022/07/03 04:03:40;;;;;;;;;;;;;;;16.69;100.00;101319.33;1749571;81;20202;-84
2022/07/03 04:06:08;;;;;;;;;;;;;;;16.82;100.00;101318.20;1749450;82;20155;-84
2022/07/03 04:08:36;;;;;;;;;;;;;;;16.95;100.00;101317.45;1749232;82;20147;-84
2022/07/03 04:11:03;;;;;;;;;;;;;;;17.09;100.00;101314.06;1747375;81;21167;-84
2022/07/03 04:13:32;;;;;;;;;;;;;;;17.21;100.00;101312.09;1742788;82;20242;-84
2022/07/03 04:15:59;;;;;;;;;;;;;;;17.33;100.00;101318.37;1742749;82;20139;-84
2022/07/03 04:18:26;;;;;;;;;;;;;;;17.43;100.00;101311.75;1742618;82;20392;-85
2022/07/03 04:20:53;;;;;;;;;;;;;;;17.55;100.00;101302.34;1742771;81;20139;-86
2022/07/03 04:23:20;;;;;;;;;;;;;;;17.64;100.00;101298.85;1742755;82;21140;-84
2022/07/03 04:25:48;;;;;;;;;;;;;;;17.76;100.00;101304.28;1742603;82;20131;-84
2022/07/03 04:28:15;;;;;;;;;;;;;;;17.88;100.00;101303.60;1743103;82;20233;-84
2022/07/03 04:30:42;;;;;;;;;;;;;;;18.00;100.00;101299.47;1742829;82;20846;-85
2022/07/03 04:33:09;;;;;;;;;;;;;;;18.13;100.00;101303.91;1742846;81;20151;-85
2022/07/03 04:35:35;;;;;;;;;;;;;;;18.24;100.00;101291.01;1742707;81;21097;-84
2022/07/03 04:38:02;;;;;;;;;;;;;;;18.37;100.00;101291.96;1742957;81;20166;-85
2022/07/03 04:40:29;;;;;;;;;;;;;;;18.51;100.00;101294.06;1753624;81;20498;-86
2022/07/03 04:42:56;;;;;;;;;;;;;;;18.65;100.00;101295.34;1749536;81;20139;-85
2022/07/03 04:45:22;;;;;;;;;;;;;;;18.81;100.00;101298.59;1742826;82;20352;-85
2022/07/03 04:47:49;;;;;;;;;;;;;;;18.96;100.00;101298.06;1742639;82;21130;-84
2022/07/03 04:50:16;;;;;;;;;;;;;;;19.09;100.00;101293.23;1742616;82;20159;-85
2022/07/03 04:52:43;;;;;;;;;;;;;;;19.23;100.00;101294.45;1743192;81;20139;-84
2022/07/03 04:55:10;;;;;;;;;;;;;;;19.38;100.00;101296.03;1742894;81;20127;-84
2022/07/03 04:57:37;;;;;;;;;;;;;;;19.53;100.00;101293.64;1743236;81;20168;-84
2022/07/03 05:00:05;;;;;;;;;;;;;;;19.69;100.00;101297.67;1742751;82;21183;-84
2022/07/03 05:02:32;;;;;;;;;;;;;;;19.85;100.00;101296.92;1742961;81;20163;-85
2022/07/03 05:04:59;;;;;;;;;;;;;;;20.03;100.00;101297.31;1743028;81;20175;-84
2022/07/03 05:07:25;;;;;;;;;;;;;;;20.20;100.00;101293.38;1747603;81;20477;-84
2022/07/03 05:09:52;;;;;;;;;;;;;;;20.35;100.00;101291.75;1742908;82;20151;-85
2022/07/03 05:12:21;;;;;;;;;;;;;;;20.51;100.00;101290.92;1742691;81;20135;-86
2022/07/03 05:14:48;;;;;;;;;;;;;;;20.65;100.00;101292.94;1742760;82;20171;-85
2022/07/03 05:17:17;;;;;;;;;;;;;;;20.79;100.00;101294.09;1742971;82;20135;-87
2022/07/03 05:19:45;;;;;;;;;;;;;;;20.94;100.00;101289.48;1742954;82;20139;-85
2022/07/03 05:22:11;;;;;;;;;;;;;;;21.06;100.00;101286.80;1743034;82;20471;-86
2022/07/03 05:24:38;;;;;;;;;;;;;;;21.21;100.00;101288.75;1742981;82;21233;-87
2022/07/03 05:27:05;;;;;;;;;;;;;;;21.34;100.00;101293.03;1743063;82;20135;-86
2022/07/03 05:29:32;;;;;;;;;;;;;;;21.46;100.00;101291.33;1742918;82;20190;-86
2022/07/03 05:31:58;;;;;;;;;;;;;;;21.57;100.00;101288.31;1743040;82;20414;-86
2022/07/03 05:34:25;;;;;;;;;;;;;;;21.67;100.00;101290.27;1753979;81;20187;-86
2022/07/03 05:36:52;;;;;;;;;;;;;;;21.79;100.00;101285.92;1752261;79;21189;-85
2022/07/03 05:39:34;;;;;;;;;;;;;;;21.87;100.00;101281.91;1755926;80;20152;-87
2022/07/03 05:42:02;;;;;;;;;;;;;;;21.96;100.00;101276.89;1754100;81;20179;-87
2022/07/03 05:44:30;;;;;;;;;;;;;;;22.09;100.00;101281.63;1754005;81;20135;-86
2022/07/03 05:46:57;;;;;;;;;;;;;;;22.24;100.00;101277.69;1756786;81;20421;-85
2022/07/03 05:49:23;;;;;;;;;;;;;;;22.42;100.00;101286.73;1756141;81;21123;-86
2022/07/03 05:51:50;;;;;;;;;;;;;;;22.57;100.00;101280.64;1750492;81;20447;-86
2022/07/03 05:54:17;;;;;;;;;;;;;;;22.71;100.00;101281.70;1751876;80;20136;-85
2022/07/03 05:56:44;;;;;;;;;;;;;;;22.82;100.00;101278.59;1748308;79;20178;-86
2022/07/03 05:59:11;;;;;;;;;;;;;;;22.92;100.00;101273.85;1749867;81;20174;-87
2022/07/03 06:01:37;;;;;;;;;;;;;;;23.03;100.00;101274.42;1756483;81;21787;-86
2022/07/03 06:04:04;;;;;;;;;;;;;;;23.11;100.00;101265.84;1749986;80;20143;-85
2022/07/03 06:06:31;;;;;;;;;;;;;;;23.18;93.33;101271.30;1761735;81;20164;-87
2022/07/03 06:08:58;;;;;;;;;;;;;;;23.28;91.78;101263.05;1767631;80;20208;-85
2022/07/03 06:11:25;;;;;;;;;;;;;;;23.40;92.49;101267.39;1773573;79;20272;-86
2022/07/03 06:13:52;;;;;;;;;;;;;;;23.48;77.07;101264.63;1773224;81;21779;-86
2022/07/03 06:16:20;;;;;;;;;;;;;;;23.55;82.60;101263.39;1773009;81;20260;-87
2022/07/03 06:18:46;;;;;;;;;;;;;;;23.65;76.59;101261.77;1773141;81;20208;-86
2022/07/03 06:21:13;;;;;;;;;;;;;;;23.72;75.32;101261.33;1773318;81;20137;-85
2022/07/03 06:23:40;;;;;;;;;;;;;;;23.77;66.60;101260.26;1773106;79;20192;-87
2022/07/03 06:26:07;;;;;;;;;;;;;;;23.81;69.31;101261.55;1755465;81;21140;-85
2022/07/03 06:28:34;;;;;;;;;;;;;;;23.85;63.86;101259.33;1758844;81;20456;-85
2022/07/03 06:31:00;;;;;;;;;;;;;;;23.87;65.68;101257.31;1768771;80;20184;-87
2022/07/03 06:33:28;;;;;;;;;;;;;;;23.90;67.61;101263.08;1768311;80;20180;-85
2022/07/03 06:35:54;;;;;;;;;;;;;;;23.99;67.20;101256.34;1768231;81;20200;-86
2022/07/03 06:38:21;;;;;;;;;;;;;;;24.03;63.53;101254.45;1768711;81;21126;-86
2022/07/03 06:40:48;;;;;;;;;;;;;;;24.10;65.98;101253.17;1768535;81;20124;-86
2022/07/03 06:43:15;;;;;;;;;;;;;;;24.18;62.78;101254.37;1768337;81;20524;-87
2022/07/03 06:45:42;;;;;;;;;;;;;;;24.24;65.21;101256.78;1768418;80;20183;-87
2022/07/03 06:48:09;;;;;;;;;;;;;;;24.30;61.31;101261.86;1768333;81;20191;-85
2022/07/03 06:50:36;;;;;;;;;;;;;;;24.36;62.23;101253.91;1768394;81;21776;-85
2022/07/03 06:53:03;;;;;;;;;;;;;;;24.40;61.81;101247.20;1768366;81;20199;-87
2022/07/03 06:55:30;;;;;;;;;;;;;;;24.41;60.52;101251.52;1768425;81;20140;-84
2022/07/03 06:57:57;;;;;;;;;;;;;;;24.47;60.74;101249.94;1757891;80;20470;-85
2022/07/03 07:00:24;;;;;;;;;;;;;;;24.52;60.97;101246.67;1747843;81;20293;-87
2022/07/03 07:02:51;;;;;;;;;;;;;;;24.57;56.95;101246.41;1761559;81;21139;-86
2022/07/03 07:05:17;;;;;;;;;;;;;;;24.58;56.65;101245.92;1768636;81;20693;-86
2022/07/03 07:07:45;;;;;;;;;;;;;;;24.59;60.57;101250.23;1761252;81;20202;-86
2022/07/03 07:10:11;;;;;;;;;;;;;;;24.66;55.29;101240.94;1742881;82;20492;-86
2022/07/03 07:12:38;;;;;;;;;;;;;;;24.68;55.90;101238.95;1744385;81;20208;-86
2022/07/03 07:15:06;;;;;;;;;;;;;;;24.71;56.39;101240.71;1749944;80;21757;-86
2022/07/03 07:17:33;;;;;;;;;;;;;;;24.70;54.92;101246.24;1750660;80;20143;-85
2022/07/03 07:20:00;;;;;;;;;;;;;;;24.69;54.53;101238.75;1748922;82;20138;-85
2022/07/03 07:22:27;;;;;;;;;;;;;;;24.72;57.98;101244.19;1749215;82;20138;-84
2022/07/03 07:24:54;;;;;;;;;;;;;;;24.81;59.42;101247.02;1749296;81;20139;-86
2022/07/03 07:27:21;;;;;;;;;;;;;;;24.87;56.57;101243.59;1749023;81;21150;-86
2022/07/03 07:29:47;;;;;;;;;;;;;;;24.93;56.74;101249.15;1749175;81;20133;-86
2022/07/03 07:32:14;;;;;;;;;;;;;;;24.97;58.54;101245.91;1749038;80;20147;-85
2022/07/03 07:34:41;;;;;;;;;;;;;;;25.02;53.62;101235.47;1748994;81;20170;-86
2022/07/03 07:37:08;;;;;;;;;;;;;;;25.01;55.16;101235.67;1749243;82;20253;-86
2022/07/03 07:39:35;;;;;;;;;;;;;;;24.99;56.23;101244.36;1753328;80;21166;-89
2022/07/03 07:42:02;;;;;;;;;;;;;;;25.03;55.68;101239.78;1764329;80;20460;-86
2022/07/03 07:44:29;;;;;;;;;;;;;;;25.07;54.22;101230.89;1758361;80;20201;-86
2022/07/03 07:46:56;;;;;;;;;;;;;;;25.09;52.20;101230.19;1756691;80;20159;-87
2022/07/03 07:49:23;;;;;;;;;;;;;;;25.08;55.27;101233.06;1748677;82;20167;-86
2022/07/03 07:51:49;;;;;;;;;;;;;;;25.12;54.06;101233.77;1752469;80;21128;-86
2022/07/03 07:54:16;;;;;;;;;;;;;;;25.23;53.83;101228.91;1760475;80;20212;-86
2022/07/03 07:56:43;;;;;;;;;;;;;;;25.33;52.48;101236.84;1753079;80;20178;-88
2022/07/03 07:59:09;;;;;;;;;;;;;;;25.41;52.09;101232.39;1749509;80;20143;-86
2022/07/03 08:07:07;;;;;;;;;;;;;;;25.56;52.64;101226.39;1757351;80;20176;-86
2022/07/03 08:09:34;;;;;;;;;;;;;;;25.54;50.79;101216.96;1755000;80;20442;-86
2022/07/03 08:12:01;;;;;;;;;;;;;;;25.52;51.24;101214.50;1752695;80;20232;-86
2022/07/03 08:14:28;;;;;;;;;;;;;;;25.56;49.66;101213.06;1770629;79;20165;-87
2022/07/03 08:16:56;;;;;;;;;;;;;;;25.62;50.67;101211.45;1780731;80;21132;-86
2022/07/03 08:19:23;;;;;;;;;;;;;;;25.71;52.25;101211.58;1777242;80;20169;-85
2022/07/03 08:21:50;;;;;;;;;;;;;;;25.80;51.04;101219.70;1778995;80;20177;-87
2022/07/03 08:24:17;;;;;;;;;;;;;;;25.87;49.78;101220.22;1784642;80;20133;-87
2022/07/03 08:26:44;;;;;;;;;;;;;;;25.88;48.57;101210.67;1782524;79;20183;-87
2022/07/03 08:29:11;;;;;;;;;;;;;;;25.91;50.00;101216.14;1790136;79;21129;-86
2022/07/03 08:31:38;;;;;;;;;;;;;;;25.99;49.56;101215.95;1787294;79;20618;-86
2022/07/03 08:34:04;;;;;;;;;;;;;;;26.04;48.90;101215.34;1794886;80;20148;-86
2022/07/03 08:36:32;;;;;;;;;;;;;;;26.03;48.00;101214.50;1798579;79;20255;-87
2022/07/03 08:38:59;;;;;;;;;;;;;;;26.08;49.70;101212.59;1798056;80;20460;-89
2022/07/03 08:41:27;;;;;;;;;;;;;;;26.13;47.89;101204.28;1798265;80;21148;-86
2022/07/03 08:43:54;;;;;;;;;;;;;;;26.19;49.42;101198.66;1798061;80;20195;-85
2022/07/03 08:46:21;;;;;;;;;;;;;;;26.28;49.50;101204.06;1798245;79;20336;-89
2022/07/03 08:48:50;;;;;;;;;;;;;;;26.28;47.74;101200.06;1798305;80;20162;-90
2022/07/03 08:51:19;;;;;;;;;;;;;;;26.21;48.94;101205.11;1798047;80;20187;-88
2022/07/03 08:53:47;;;;;;;;;;;;;;;26.21;47.65;101205.91;1798166;80;21157;-87
2022/07/03 08:56:14;;;;;;;;;;;;;;;26.26;49.87;101201.30;1766840;80;20181;-87
2022/07/03 08:58:42;;;;;;;;;;;;;;;26.36;50.94;101195.04;1766656;81;20179;-86
2022/07/03 09:01:09;;;;;;;;;;;;;;;26.49;52.68;101192.87;1766685;81;20154;-87
2022/07/03 09:03:38;;;;;;;;;;;;;;;26.56;48.77;101196.35;1766673;81;20162;-88
2022/07/03 09:06:05;;;;;;;;;;;;;;;26.60;48.29;101201.56;1766414;80;21163;-86
2022/07/03 09:08:34;;;;;;;;;;;;;;;26.63;47.52;101197.69;1766436;80;20181;-85
2022/07/03 09:11:01;;;;;;;;;;;;;;;26.66;48.72;101195.91;1766450;80;20467;-89
2022/07/03 09:13:30;;;;;;;;;;;;;;;26.76;46.65;101189.66;1759140;81;20523;-87
2022/07/03 09:15:57;;;;;;;;;;;;;;;26.89;47.88;101199.99;1729679;83;20487;-87
2022/07/03 09:18:41;;;;;;;;;;;;;;;26.96;46.27;101202.66;1729556;83;21146;-87
2022/07/03 09:21:10;;;;;;;;;;;;;;;26.95;46.92;101191.16;1729754;83;20123;-86
2022/07/03 09:23:45;;;;;;;;;;;;;;;27.02;48.24;101193.79;1729760;82;20147;-87
2022/07/03 09:26:16;;;;;;;;;;;;;;;27.13;47.44;101197.16;1729480;83;20406;-86
2022/07/03 09:28:51;;;;;;;;;;;;;;;27.20;47.21;101189.12;1729679;83;20143;-89
2022/07/03 09:31:27;;;;;;;;;;;;;;;27.19;47.25;101202.17;1758024;81;21170;-88
2022/07/03 09:34:03;;;;;;;;;;;;;;;27.07;45.21;101192.13;1769047;80;20136;-87
2022/07/03 09:36:45;;;;;;;;;;;;;;;27.06;46.33;101188.34;1768850;80;20289;-89
2022/07/03 09:39:24;;;;;;;;;;;;;;;27.12;44.90;101181.34;1769007;80;20483;-90
2022/07/03 09:42:32;;;;;;;;;;;;;;;27.16;48.77;101183.88;1769296;81;20132;-90
2022/07/03 09:45:27;;;;;;;;;;;;;;;27.28;48.81;101180.83;1769477;80;21085;-88
2022/07/03 09:47:54;;;;;;;;;;;;;;;27.50;48.52;101176.55;1769152;81;20172;-87
2022/07/03 09:50:21;;;;;;;;;;;;;;;27.65;47.74;101173.05;1769040;80;20161;-86
2022/07/03 09:52:48;;;;;;;;;;;;;;;27.67;43.51;101172.33;1769011;80;20172;-87
2022/07/03 09:55:17;;;;;;;;;;;;;;;27.55;43.91;101192.26;1769252;81;20175;-86
2022/07/03 09:57:48;;;;;;;;;;;;;;;27.42;44.13;101172.26;1768993;81;21217;-86
2022/07/03 10:00:32;;;;;;;;;;;;;;;27.36;43.90;101171.22;1761075;81;20125;-87
2022/07/03 10:03:06;;;;;;;;;;;;;;;27.44;44.70;101168.05;1768719;80;20199;-87
2022/07/03 10:05:37;;;;;;;;;;;;;;;27.57;43.26;101162.61;1768650;80;20224;-87
2022/07/03 10:08:12;;;;;;;;;;;;;;;27.62;44.44;101157.95;1768213;81;20167;-87
2022/07/03 10:10:41;;;;;;;;;;;;;;;27.75;44.46;101159.20;1768728;81;21864;-85
2022/07/03 10:13:09;;;;;;;;;;;;;;;27.89;43.45;101152.39;1768675;81;20415;-85
2022/07/03 10:15:38;;;;;;;;;;;;;;;27.98;43.15;101160.45;1768676;80;20171;-85
2022/07/03 10:18:07;;;;;;;;;;;;;;;27.94;42.80;101154.72;1768695;80;20367;-86
2022/07/03 10:20:36;;;;;;;;;;;;;;;27.85;42.86;101153.34;1768755;80;20466;-85
2022/07/03 10:23:03;;;;;;;;;;;;;;;27.89;45.79;101155.07;1768527;80;21166;-88
2022/07/03 10:25:30;;;;;;;;;;;;;;;27.96;42.82;101150.52;1768694;81;20128;-87
2022/07/03 10:27:57;;;;;;;;;;;;;;;27.98;44.94;101147.91;1769111;80;20144;-85
2022/07/03 10:30:24;;;;;;;;;;;;;;;28.03;44.40;101149.41;1768978;81;20136;-84
2022/07/03 10:32:54;;;;;;;;;;;;;;;28.08;44.24;101145.30;1768899;80;20171;-87
2022/07/03 10:35:30;;;;;;;;;;;;;;;28.07;43.23;101136.96;1769290;80;21092;-87
2022/07/03 10:38:10;;;;;;;;;;;;;;;28.08;45.59;101138.61;1765817;81;20133;-88
2022/07/03 10:46:33;;;;;;;;;;;;;;;28.40;43.71;101128.59;1768671;81;20175;-89
2022/07/03 10:49:08;;;;;;;;;;;;;;;28.52;41.17;101126.00;1768695;81;21167;-86
2022/07/03 10:51:49;;;;;;;;;;;;;;;28.58;40.74;101126.44;1768655;80;20180;-88
2022/07/03 10:54:33;;;;;;;;;;;;;;;28.54;40.12;101127.94;1768806;80;20137;-88
2022/07/03 10:57:03;;;;;;;;;;;;;;;28.51;40.12;101120.88;1768533;81;20195;-88
2022/07/03 10:59:42;;;;;;;;;;;;;;;28.56;41.25;101120.52;1768561;80;20164;-89
2022/07/03 11:02:20;;;;;;;;;;;;;;;28.71;40.94;101112.11;1769281;81;21150;-86
2022/07/03 11:05:00;;;;;;;;;;;;;;;28.77;38.46;101114.41;1754010;81;20160;-89
2022/07/03 11:07:29;;;;;;;;;;;;;;;28.74;38.86;101109.49;1712051;81;20461;-88
2022/07/03 11:10:17;;;;;;;;;;;;;;;28.65;38.47;101111.11;1756542;80;20133;-88
2022/07/03 11:13:11;;;;;;;;;;;;;;;28.58;39.13;101103.67;1757624;81;20195;-89
2022/07/03 11:15:45;;;;;;;;;;;;;;;28.61;39.17;101103.23;1752752;79;21109;-87
2022/07/03 11:18:27;;;;;;;;;;;;;;;28.68;39.76;101103.67;1747990;81;20178;-88
2022/07/03 11:21:04;;;;;;;;;;;;;;;28.64;39.59;101104.64;1750984;81;20135;-87
2022/07/03 11:23:36;;;;;;;;;;;;;;;28.65;38.44;101103.61;1750169;81;20179;-89
2022/07/03 11:26:10;;;;;;;;;;;;;;;28.64;38.80;101100.63;1745649;81;20387;-88
2022/07/03 11:28:40;;;;;;;;;;;;;;;28.61;39.07;101085.83;1747822;81;21178;-88
2022/07/03 11:31:14;;;;;;;;;;;;;;;28.63;39.89;101087.77;1751168;81;20148;-91
2022/07/03 11:33:57;;;;;;;;;;;;;;;28.62;39.00;101094.16;1752651;81;20139;-88
2022/07/03 11:36:32;;;;;;;;;;;;;;;28.57;39.77;101092.66;1751544;81;20518;-88
2022/07/03 11:39:02;;;;;;;;;;;;;;;28.51;38.57;101095.44;1760016;81;20166;-88
2022/07/03 11:41:39;;;;;;;;;;;;;;;28.52;40.00;101091.72;1745413;81;21096;-88
2022/07/03 11:44:08;;;;;;;;;;;;;;;28.60;38.99;101087.40;1748071;81;20162;-89
2022/07/03 11:46:38;;;;;;;;;;;;;;;28.74;40.06;101092.08;1748455;81;20201;-87
2022/07/03 11:49:10;;;;;;;;;;;;;;;28.84;38.17;101082.19;1762734;81;20201;-89
2022/07/03 11:51:39;;;;;;;;;;;;;;;28.84;38.88;101076.30;1766577;80;20178;-89
2022/07/03 11:54:07;;;;;;;;;;;;;;;28.89;40.50;101083.66;1768383;81;21735;-87
2022/07/03 11:56:35;;;;;;;;;;;;;;;28.90;40.61;101087.97;1768485;81;20181;-88
2022/07/03 11:59:04;;;;;;;;;;;;;;;28.89;40.82;101081.78;1754016;81;20177;-88
2022/07/03 12:01:34;;;;;;;;;;;;;;;28.97;39.62;101072.62;1752085;81;20190;-90
2022/07/03 12:04:10;;;;;;;;;;;;;;;29.07;39.69;101077.42;1751670;81;20235;-89
2022/07/03 12:06:48;;;;;;;;;;;;;;;29.12;39.26;101074.89;1747159;81;21871;-87
2022/07/03 12:09:22;;;;;;;;;;;;;;;29.19;42.39;101068.91;1751998;81;20230;-89
2022/07/03 12:11:58;;;;;;;;;;;;;;;29.34;42.97;101072.52;1747154;81;20177;-91
2022/07/03 12:14:47;;;;;;;;;;;;;;;29.37;39.58;101069.89;1757208;80;20289;-87
2022/07/03 12:17:16;;;;;;;;;;;;;;;29.30;42.46;101067.30;1760607;80;20101;-87
2022/07/03 12:19:54;;;;;;;;;;;;;;;29.27;39.18;101068.58;1750945;80;20851;-88
2022/07/03 12:22:35;;;;;;;;;;;;;;;29.11;40.26;101067.90;1753202;80;20151;-90
2022/07/03 12:25:05;;;;;;;;;;;;;;;29.02;41.11;101069.26;1748850;82;20574;-90
2022/07/03 12:27:35;;;;;;;;;;;;;;;29.06;39.36;101065.06;1749333;82;20139;-88
2022/07/03 12:30:03;;;;;;;;;;;;;;;29.14;39.52;101063.40;1747595;80;20178;-88
2022/07/03 12:32:31;;;;;;;;;;;;;;;29.22;39.35;101060.39;1747063;82;21248;-89
2022/07/03 12:35:00;;;;;;;;;;;;;;;29.22;40.45;101066.29;1759112;80;20234;-89
2022/07/03 12:37:35;;;;;;;;;;;;;;;29.22;41.31;101061.73;1752262;80;20144;-87
2022/07/03 12:40:02;;;;;;;;;;;;;;;29.17;40.80;101057.59;1754975;80;20167;-89
2022/07/03 12:42:29;;;;;;;;;;;;;;;29.13;40.45;101061.77;1748799;81;20587;-88
2022/07/03 12:44:59;;;;;;;;;;;;;;;29.12;38.43;101058.81;1749019;81;21113;-87
2022/07/03 12:47:27;;;;;;;;;;;;;;;29.14;39.83;101052.67;1747714;81;20167;-89
2022/07/03 12:50:01;;;;;;;;;;;;;;;29.29;39.97;101052.26;1748826;80;20504;-88
2022/07/03 12:52:29;;;;;;;;;;;;;;;29.39;39.44;101059.77;1747459;82;20159;-92
2022/07/03 12:54:56;;;;;;;;;;;;;;;29.35;40.13;101058.06;1750965;80;20210;-89
2022/07/03 13:00:16;;;;;;;;;;;;;;;29.33;40.19;101056.66;1751668;80;20174;-86
2022/07/03 13:02:45;;;;;;;;;;;;;;;29.25;39.74;101050.56;1757294;80;20128;-87
2022/07/03 13:05:23;;;;;;;;;;;;;;;29.26;39.60;101050.86;1763303;80;20188;-87